Time;durP1;ratioP1;P1;durP2;ratioP2;P2;SDS_P1;SDS_P2;PMS_P1;PMS_P2;Temp;Humidity;BMP_temperature;BMP_pressure;BME280_temperature;BME280_humidity;BME280_pressure;Samples;Min_cycle;Max_cycle;Signal;HPM_P1;HPM_P2
2023/01/06 00:01:28;;;;;;;17.33;11.90;;;8.80;99.90;;;;;;4990882;28;20184;-73
2023/01/06 00:03:57;;;;;;;17.80;11.73;;;8.80;99.90;;;;;;4990069;28;20172;-73
2023/01/06 00:06:27;;;;;;;14.57;10.53;;;8.80;99.90;;;;;;4991352;28;20211;-72
2023/01/06 00:09:01;;;;;;;12.63;11.33;;;8.80;99.90;;;;;;4989609;28;20212;-73
2023/01/06 00:11:28;;;;;;;12.63;10.10;;;8.80;99.90;;;;;;4991744;28;20184;-73
2023/01/06 00:13:55;;;;;;;17.13;9.73;;;8.70;99.90;;;;;;4990906;28;20666;-71
2023/01/06 00:16:21;;;;;;;13.87;10.07;;;8.70;99.90;;;;;;4990172;28;20239;-72
2023/01/06 00:18:47;;;;;;;15.33;10.43;;;8.60;99.90;;;;;;4990313;28;20176;-72
2023/01/06 00:21:14;;;;;;;17.10;10.53;;;8.60;99.90;;;;;;4990830;28;20607;-72
2023/01/06 00:23:41;;;;;;;13.33;11.10;;;8.60;99.90;;;;;;4990381;28;20235;-73
2023/01/06 00:26:08;;;;;;;17.00;11.00;;;8.60;99.90;;;;;;4990909;28;20180;-73
2023/01/06 00:28:34;;;;;;;15.03;10.20;;;8.60;99.90;;;;;;4989046;28;20176;-73
2023/01/06 00:31:05;;;;;;;16.53;10.30;;;8.60;99.90;;;;;;4990570;28;20209;-73
2023/01/06 00:33:31;;;;;;;15.40;10.57;;;8.50;99.90;;;;;;4990967;28;20899;-73
2023/01/06 00:35:58;;;;;;;15.97;10.97;;;8.50;99.90;;;;;;4990547;28;20263;-73
2023/01/06 00:38:24;;;;;;;13.17;11.77;;;8.60;99.90;;;;;;4990626;28;20187;-73
2023/01/06 00:40:49;;;;;;;17.47;14.63;;;8.50;99.90;;;;;;4990565;28;20177;-72
2023/01/06 00:43:15;;;;;;;16.10;14.77;;;8.50;99.90;;;;;;4991111;28;20200;-72
2023/01/06 00:45:41;;;;;;;20.93;18.67;;;8.50;99.90;;;;;;4991182;28;20195;-72
2023/01/06 00:48:07;;;;;;;20.40;18.27;;;8.50;99.90;;;;;;4989053;28;20181;-72
2023/01/06 00:50:33;;;;;;;16.20;14.33;;;8.40;99.90;;;;;;4990592;28;20211;-71
2023/01/06 00:52:59;;;;;;;17.17;13.33;;;8.40;99.90;;;;;;4990564;28;20223;-72
2023/01/06 00:55:24;;;;;;;15.17;13.77;;;8.40;99.90;;;;;;4989323;28;20172;-72
2023/01/06 00:57:51;;;;;;;20.57;18.73;;;8.50;99.90;;;;;;4990093;28;20196;-71
2023/01/06 01:00:17;;;;;;;17.90;16.17;;;8.50;99.90;;;;;;4991932;28;20191;-72
2023/01/06 01:02:43;;;;;;;14.77;13.23;;;8.40;99.90;;;;;;4990942;28;20210;-72
2023/01/06 01:05:09;;;;;;;16.80;12.70;;;8.40;99.90;;;;;;4990842;28;20275;-71
2023/01/06 01:07:35;;;;;;;17.67;15.97;;;8.40;99.90;;;;;;4989540;28;20628;-72
2023/01/06 01:10:01;;;;;;;19.73;17.80;;;8.40;99.90;;;;;;4990345;28;20220;-72
2023/01/06 01:12:27;;;;;;;22.67;20.83;;;8.40;99.90;;;;;;4990632;28;20207;-72
2023/01/06 01:14:53;;;;;;;22.27;20.57;;;8.40;99.90;;;;;;4990546;28;20263;-72
2023/01/06 01:17:26;;;;;;;20.20;18.53;;;8.40;99.90;;;;;;4989889;28;20188;-72
2023/01/06 01:19:54;;;;;;;16.00;14.27;;;8.40;99.90;;;;;;4990264;28;20180;-72
2023/01/06 01:22:24;;;;;;;16.27;14.80;;;8.50;99.90;;;;;;4990048;28;20200;-72
2023/01/06 01:24:50;;;;;;;13.03;11.83;;;8.40;99.90;;;;;;4989104;28;20188;-72
2023/01/06 01:27:17;;;;;;;11.80;10.67;;;8.40;99.90;;;;;;4988668;28;20272;-72
2023/01/06 01:29:43;;;;;;;12.17;11.00;;;8.40;99.90;;;;;;4989658;28;20212;-72
2023/01/06 01:32:09;;;;;;;13.03;11.40;;;8.40;99.90;;;;;;4989228;28;20220;-72
2023/01/06 01:34:35;;;;;;;14.50;10.60;;;8.40;99.90;;;;;;4990480;28;20212;-72
2023/01/06 01:37:01;;;;;;;12.10;10.23;;;8.30;99.90;;;;;;4993099;28;20215;-72
2023/01/06 01:39:28;;;;;;;13.20;10.33;;;8.30;99.90;;;;;;4993865;28;20180;-72
2023/01/06 01:41:55;;;;;;;11.70;10.63;;;8.30;99.90;;;;;;4992792;28;20200;-72
2023/01/06 01:44:54;;;;;;;13.73;12.30;;;8.30;99.90;;;;;;4994229;28;20235;-73
2023/01/06 01:47:31;;;;;;;13.43;11.50;;;8.30;99.90;;;;;;4993302;28;20196;-72
2023/01/06 01:50:20;;;;;;;11.63;10.53;;;8.30;99.90;;;;;;4994690;28;20227;-72
2023/01/06 01:52:49;;;;;;;13.33;12.07;;;8.20;99.90;;;;;;4990809;28;20287;-72
2023/01/06 01:55:16;;;;;;;13.80;11.17;;;8.20;99.90;;;;;;4993579;28;20271;-72
2023/01/06 01:57:52;;;;;;;11.00;9.40;;;8.20;99.90;;;;;;4993007;28;20181;-72
2023/01/06 02:00:18;;;;;;;16.43;14.77;;;8.10;99.90;;;;;;4993555;28;20239;-72
2023/01/06 02:02:44;;;;;;;22.40;20.67;;;8.00;99.90;;;;;;4992554;28;20208;-74
2023/01/06 02:05:13;;;;;;;21.00;19.30;;;7.90;99.90;;;;;;4992242;28;20191;-71
2023/01/06 02:07:39;;;;;;;14.30;13.20;;;7.80;99.90;;;;;;4992923;28;20299;-72
2023/01/06 02:10:12;;;;;;;13.63;11.53;;;7.80;99.90;;;;;;4993341;28;20216;-72
2023/01/06 02:12:39;;;;;;;13.20;11.40;;;7.70;99.90;;;;;;4993649;28;20208;-72
2023/01/06 02:15:26;;;;;;;21.30;19.83;;;7.60;99.90;;;;;;4992438;28;20180;-71
2023/01/06 02:18:30;;;;;;;20.33;18.43;;;7.60;99.90;;;;;;4992818;28;20276;-72
2023/01/06 02:21:10;;;;;;;21.03;19.27;;;7.50;99.90;;;;;;4992892;28;20207;-72
2023/01/06 02:23:57;;;;;;;18.97;17.43;;;7.40;99.90;;;;;;4976990;28;20228;-72
2023/01/06 02:26:51;;;;;;;16.10;14.87;;;7.40;99.90;;;;;;4993220;28;20184;-72
2023/01/06 02:29:49;;;;;;;16.87;15.57;;;7.30;99.90;;;;;;4991747;28;20217;-72
2023/01/06 02:32:30;;;;;;;15.90;14.80;;;7.20;99.90;;;;;;4993126;28;20208;-71
2023/01/06 02:35:11;;;;;;;15.43;14.33;;;7.20;99.90;;;;;;4992621;28;20181;-72
2023/01/06 02:37:50;;;;;;;12.37;10.97;;;7.10;99.90;;;;;;4991627;28;20180;-72
2023/01/06 02:40:34;;;;;;;10.40;9.70;;;7.10;99.90;;;;;;4992391;28;20184;-72
2023/01/06 02:43:17;;;;;;;14.50;13.20;;;7.00;99.90;;;;;;4992597;28;20236;-72
2023/01/06 02:46:05;;;;;;;13.93;12.87;;;6.90;99.90;;;;;;4991162;28;20195;-72
2023/01/06 02:48:51;;;;;;;15.40;14.03;;;6.90;99.90;;;;;;4991744;28;20184;-72
2023/01/06 02:51:44;;;;;;;20.63;19.03;;;6.80;99.90;;;;;;4991408;28;20266;-72
2023/01/06 02:54:26;;;;;;;35.77;33.70;;;6.70;99.90;;;;;;4986730;28;20193;-72
2023/01/06 02:57:30;;;;;;;25.83;24.20;;;6.70;99.90;;;;;;4991591;28;20180;-72
2023/01/06 03:00:10;;;;;;;20.83;19.33;;;6.70;99.90;;;;;;4991937;28;20191;-72
2023/01/06 03:02:40;;;;;;;14.03;13.17;;;6.70;99.90;;;;;;4993347;28;20295;-72
2023/01/06 03:05:10;;;;;;;18.53;17.43;;;6.70;99.90;;;;;;4991954;28;20199;-72
2023/01/06 03:07:38;;;;;;;15.90;14.97;;;6.70;99.90;;;;;;4990006;28;20258;-72
2023/01/06 03:10:06;;;;;;;26.63;24.93;;;6.70;99.90;;;;;;4992005;28;20232;-72
2023/01/06 03:13:13;;;;;;;40.27;38.00;;;6.80;99.90;;;;;;4992110;28;20215;-72
2023/01/06 03:15:39;;;;;;;39.57;37.20;;;6.80;99.90;;;;;;4969894;28;20235;-72
2023/01/06 03:18:05;;;;;;;46.40;43.83;;;6.80;99.90;;;;;;4991247;28;20180;-72
2023/01/06 03:20:30;;;;;;;32.37;30.43;;;6.90;99.90;;;;;;4991992;28;20239;-72
2023/01/06 03:22:56;;;;;;;53.20;50.13;;;6.90;99.90;;;;;;4992121;28;20227;-72
2023/01/06 03:25:23;;;;;;;62.50;59.10;;;6.90;99.90;;;;;;4992184;28;20181;-72
2023/01/06 03:27:49;;;;;;;47.47;44.70;;;7.00;99.90;;;;;;4990180;28;20650;-72
2023/01/06 03:30:15;;;;;;;66.33;62.87;;;7.00;99.90;;;;;;4991813;28;20208;-72
2023/01/06 03:32:55;;;;;;;14.30;13.23;;;7.00;99.90;;;;;;4991706;28;20212;-72
2023/01/06 03:35:47;;;;;;;12.23;11.20;;;7.10;99.90;;;;;;4991996;28;20634;-72
2023/01/06 03:38:44;;;;;;;25.77;24.13;;;7.10;99.90;;;;;;4991285;28;20180;-72
2023/01/06 03:44:37;;;;;;;18.50;17.40;;;7.10;99.90;;;;;;4991942;28;20214;-72
2023/01/06 03:47:12;;;;;;;22.40;21.10;;;7.10;99.90;;;;;;4991197;28;20176;-72
2023/01/06 03:50:03;;;;;;;30.90;29.20;;;7.10;99.90;;;;;;4991285;28;20241;-72
2023/01/06 03:52:32;;;;;;;23.77;22.37;;;7.10;99.90;;;;;;4991909;28;20353;-72
2023/01/06 03:55:13;;;;;;;13.27;12.43;;;7.20;99.90;;;;;;4991628;28;20239;-72
2023/01/06 03:57:44;;;;;;;21.57;19.70;;;7.10;99.90;;;;;;4989149;28;20180;-72
2023/01/06 04:00:10;;;;;;;34.80;32.03;;;7.20;99.90;;;;;;4991141;28;20215;-72
2023/01/06 04:02:38;;;;;;;47.87;44.73;;;7.10;99.90;;;;;;4991562;28;20981;-73
2023/01/06 04:05:16;;;;;;;64.43;60.47;;;7.20;99.90;;;;;;4991920;28;20523;-72
2023/01/06 04:07:43;;;;;;;72.27;68.03;;;7.20;99.90;;;;;;5006049;28;20195;-72
2023/01/06 04:10:11;;;;;;;51.00;47.70;;;7.20;99.90;;;;;;4991231;28;20570;-72
2023/01/06 04:12:37;;;;;;;17.60;12.10;;;7.10;99.90;;;;;;4990367;28;20200;-72
2023/01/06 04:15:05;;;;;;;22.00;19.93;;;7.00;99.90;;;;;;4991117;28;20188;-72
2023/01/06 04:17:30;;;;;;;19.73;17.97;;;7.00;99.90;;;;;;4991074;28;20226;-72
2023/01/06 04:19:56;;;;;;;19.23;17.60;;;6.90;99.90;;;;;;4989942;28;20188;-72
2023/01/06 04:22:22;;;;;;;20.70;18.77;;;6.80;99.90;;;;;;4991341;28;20252;-72
2023/01/06 04:24:48;;;;;;;18.03;16.73;;;6.80;99.90;;;;;;4989091;28;20181;-72
2023/01/06 04:27:13;;;;;;;16.10;14.60;;;6.70;99.90;;;;;;4986274;28;20189;-71
2023/01/06 04:29:39;;;;;;;13.07;11.73;;;6.60;99.90;;;;;;4990208;28;20216;-72
2023/01/06 04:32:05;;;;;;;12.57;11.50;;;6.50;99.90;;;;;;4990792;28;20212;-71
2023/01/06 04:34:30;;;;;;;10.17;9.30;;;6.40;99.90;;;;;;4991020;28;20660;-72
2023/01/06 04:36:56;;;;;;;10.17;9.43;;;6.30;99.90;;;;;;4990164;28;20180;-71
2023/01/06 04:39:22;;;;;;;12.17;11.10;;;6.20;99.90;;;;;;4991047;28;20180;-72
2023/01/06 04:41:48;;;;;;;10.20;9.40;;;6.10;99.90;;;;;;4990556;28;20689;-72
2023/01/06 04:44:13;;;;;;;17.73;15.97;;;6.10;99.90;;;;;;4990848;28;20551;-71
2023/01/06 04:46:39;;;;;;;33.80;31.90;;;6.00;99.90;;;;;;4990861;28;20191;-72
2023/01/06 04:49:05;;;;;;;33.87;31.80;;;5.90;99.90;;;;;;4990281;28;20672;-72
2023/01/06 04:51:31;;;;;;;18.93;17.23;;;5.90;99.90;;;;;;4990499;28;20188;-73
2023/01/06 04:53:56;;;;;;;10.20;9.17;;;5.90;99.90;;;;;;4990253;28;20728;-72
2023/01/06 04:56:22;;;;;;;25.73;24.30;;;5.90;99.90;;;;;;4990611;28;20669;-71
2023/01/06 04:58:48;;;;;;;29.73;27.83;;;5.80;99.90;;;;;;4989817;28;20176;-71
2023/01/06 05:01:14;;;;;;;31.87;30.03;;;5.90;99.90;;;;;;5002151;28;20180;-71
2023/01/06 05:03:40;;;;;;;31.60;29.53;;;5.80;99.90;;;;;;5014074;28;20200;-71
2023/01/06 05:06:08;;;;;;;26.50;24.83;;;5.80;99.90;;;;;;4993907;28;20188;-72
2023/01/06 05:08:35;;;;;;;18.83;17.70;;;5.70;99.90;;;;;;4989608;28;20184;-71
2023/01/06 05:11:23;;;;;;;21.43;19.90;;;5.70;99.90;;;;;;5008919;28;20208;-71
2023/01/06 05:13:49;;;;;;;22.03;20.73;;;5.60;99.90;;;;;;4994443;28;20243;-71
2023/01/06 05:16:27;;;;;;;22.00;20.60;;;5.50;99.90;;;;;;4993853;28;20180;-71
2023/01/06 05:18:54;;;;;;;15.27;14.13;;;5.40;99.90;;;;;;4993332;28;20187;-72
2023/01/06 05:21:20;;;;;;;18.53;17.43;;;5.40;99.90;;;;;;4993860;28;20177;-72
2023/01/06 05:23:46;;;;;;;18.43;17.30;;;5.30;99.90;;;;;;4993348;28;20639;-72
2023/01/06 05:26:23;;;;;;;20.73;19.53;;;5.30;99.90;;;;;;4992875;28;20176;-72
2023/01/06 05:28:49;;;;;;;19.20;18.10;;;5.40;99.90;;;;;;4993229;28;20180;-72
2023/01/06 05:31:14;;;;;;;17.10;15.97;;;5.30;99.90;;;;;;4993383;28;20219;-72
2023/01/06 05:33:40;;;;;;;16.77;15.77;;;5.30;99.90;;;;;;5042895;22;20227;-77
2023/01/06 05:36:17;;;;;;;16.80;15.80;;;5.40;99.90;;;;;;5033271;28;20254;-77
2023/01/06 05:38:43;;;;;;;15.07;14.17;;;5.40;99.90;;;;;;5031458;28;20245;-77
2023/01/06 05:41:09;;;;;;;23.33;21.93;;;5.40;99.90;;;;;;5033127;28;20280;-77
2023/01/06 05:43:36;;;;;;;28.10;26.57;;;5.40;99.90;;;;;;5032507;28;20222;-77
2023/01/06 05:46:09;;;;;;;13.10;12.23;;;5.40;99.90;;;;;;5032185;28;20652;-77
2023/01/06 05:48:36;;;;;;;12.77;12.07;;;5.40;99.90;;;;;;5031384;28;20183;-77
2023/01/06 05:51:07;;;;;;;14.47;13.57;;;5.50;99.90;;;;;;5032528;28;20679;-78
2023/01/06 05:53:35;;;;;;;11.90;11.00;;;5.50;99.90;;;;;;5031769;28;20225;-77
2023/01/06 05:56:05;;;;;;;14.30;13.10;;;5.60;99.90;;;;;;5033459;28;20208;-77
2023/01/06 05:58:35;;;;;;;16.30;15.40;;;5.70;99.90;;;;;;5016518;28;20279;-76
2023/01/06 06:01:02;;;;;;;20.57;19.50;;;5.70;99.90;;;;;;5011809;28;20652;-77
2023/01/06 06:03:29;;;;;;;15.67;14.60;;;5.70;99.90;;;;;;5023594;28;20233;-76
2023/01/06 06:05:55;;;;;;;15.60;14.50;;;5.70;99.90;;;;;;5032881;28;20248;-77
2023/01/06 06:08:20;;;;;;;19.27;17.93;;;5.70;99.90;;;;;;5031879;28;20179;-76
2023/01/06 06:10:46;;;;;;;25.60;24.20;;;5.80;99.90;;;;;;5032382;28;20333;-77
2023/01/06 06:13:12;;;;;;;21.40;20.00;;;5.80;99.90;;;;;;5033347;28;20690;-76
2023/01/06 06:15:38;;;;;;;19.27;18.00;;;5.90;99.90;;;;;;5036282;28;20210;-76
2023/01/06 06:18:03;;;;;;;21.93;20.33;;;6.00;99.90;;;;;;5034115;28;20183;-76
2023/01/06 06:20:29;;;;;;;23.37;21.93;;;6.00;99.90;;;;;;5032354;28;20274;-76
2023/01/06 06:22:55;;;;;;;21.53;20.30;;;6.10;99.90;;;;;;5032510;28;20579;-76
2023/01/06 06:25:21;;;;;;;20.90;19.50;;;6.00;99.90;;;;;;5032160;28;20245;-76
2023/01/06 06:27:47;;;;;;;24.03;22.73;;;6.10;99.90;;;;;;5031885;28;20183;-75
2023/01/06 06:30:13;;;;;;;30.70;28.97;;;6.00;99.90;;;;;;5031743;28;20210;-77
2023/01/06 06:32:38;;;;;;;11.83;10.93;;;6.00;99.90;;;;;;5031009;28;20203;-75
2023/01/06 06:35:04;;;;;;;28.27;26.37;;;6.00;99.90;;;;;;5031556;28;20219;-76
2023/01/06 06:37:30;;;;;;;30.70;28.93;;;6.00;99.90;;;;;;5030075;28;20210;-76
2023/01/06 06:39:56;;;;;;;32.33;30.33;;;6.00;99.90;;;;;;5030393;28;20218;-76
2023/01/06 06:42:21;;;;;;;25.53;23.73;;;6.10;99.90;;;;;;5030658;28;20199;-77
2023/01/06 06:44:47;;;;;;;24.67;23.17;;;6.10;99.90;;;;;;5032047;28;20682;-76
2023/01/06 06:47:14;;;;;;;29.37;27.53;;;6.20;99.90;;;;;;5031109;28;20183;-76
2023/01/06 06:49:40;;;;;;;29.73;28.03;;;6.20;99.90;;;;;;5031340;28;20739;-76
2023/01/06 06:52:06;;;;;;;31.87;29.67;;;6.20;99.90;;;;;;5031865;28;20178;-76
2023/01/06 06:54:32;;;;;;;31.57;29.63;;;6.30;99.90;;;;;;5029903;28;20175;-76
2023/01/06 06:56:57;;;;;;;31.20;29.07;;;6.30;99.90;;;;;;5030954;28;20171;-76
2023/01/06 06:59:23;;;;;;;31.37;29.07;;;6.30;99.90;;;;;;5031693;28;20183;-76
2023/01/06 07:01:49;;;;;;;29.37;27.37;;;6.40;99.90;;;;;;5030614;28;20194;-76
2023/01/06 07:04:14;;;;;;;31.10;29.17;;;6.40;99.90;;;;;;5032026;28;20836;-76
2023/01/06 07:06:40;;;;;;;30.33;28.17;;;6.40;99.90;;;;;;5031280;28;20183;-76
2023/01/06 07:09:06;;;;;;;26.43;24.60;;;6.40;99.90;;;;;;5030742;28;20183;-75
2023/01/06 07:11:32;;;;;;;24.77;23.07;;;6.50;99.90;;;;;;5031171;28;20191;-76
2023/01/06 07:13:57;;;;;;;25.70;23.83;;;6.50;99.90;;;;;;5029572;28;20199;-75
2023/01/06 07:16:25;;;;;;;29.50;27.43;;;6.50;99.90;;;;;;5031452;28;20671;-76
2023/01/06 07:18:52;;;;;;;36.43;33.83;;;6.60;99.90;;;;;;5030480;28;20184;-75
2023/01/06 07:21:18;;;;;;;33.37;30.90;;;6.60;99.90;;;;;;5030073;28;20667;-76
2023/01/06 07:23:44;;;;;;;34.67;32.37;;;6.70;99.90;;;;;;5030672;28;20203;-76
2023/01/06 07:26:10;;;;;;;35.77;33.47;;;6.70;99.90;;;;;;5030095;28;20645;-75
2023/01/06 07:28:36;;;;;;;40.63;38.03;;;6.70;99.90;;;;;;5029635;28;20179;-76
2023/01/06 07:31:02;;;;;;;36.43;34.27;;;6.80;99.90;;;;;;5029951;28;20642;-77
2023/01/06 07:33:28;;;;;;;34.13;32.03;;;6.80;99.90;;;;;;5028788;28;20293;-76
2023/01/06 07:35:55;;;;;;;35.50;33.40;;;6.90;99.90;;;;;;5030288;28;20190;-76
2023/01/06 07:38:22;;;;;;;31.33;29.23;;;6.90;99.90;;;;;;5030275;28;20187;-77
2023/01/06 07:40:48;;;;;;;36.83;34.63;;;7.00;99.90;;;;;;5030055;28;20217;-76
2023/01/06 07:43:15;;;;;;;28.87;26.93;;;7.00;99.90;;;;;;5031451;28;20203;-76
2023/01/06 07:45:41;;;;;;;22.73;21.27;;;7.00;99.90;;;;;;5031551;28;20270;-76
2023/01/06 07:48:08;;;;;;;18.00;16.30;;;7.10;99.90;;;;;;5030469;28;20222;-76
2023/01/06 07:50:34;;;;;;;15.43;14.23;;;7.20;99.90;;;;;;5029753;28;20211;-76
2023/01/06 07:53:01;;;;;;;13.27;12.17;;;7.30;99.90;;;;;;5030418;28;20213;-76
2023/01/06 07:55:27;;;;;;;13.23;12.10;;;7.40;99.90;;;;;;5027357;28;20191;-76
2023/01/06 07:57:53;;;;;;;12.67;11.57;;;7.40;99.90;;;;;;5030304;28;20175;-77
2023/01/06 08:00:19;;;;;;;12.00;11.00;;;7.40;99.90;;;;;;5030802;28;20263;-76
2023/01/06 08:02:45;;;;;;;11.50;10.17;;;7.50;99.90;;;;;;5029061;28;20766;-76
2023/01/06 08:05:11;;;;;;;13.67;12.70;;;7.60;99.90;;;;;;5029764;28;20333;-76
2023/01/06 08:07:37;;;;;;;11.43;10.63;;;7.80;99.90;;;;;;5024985;28;20246;-76
2023/01/06 08:10:03;;;;;;;10.03;9.23;;;7.90;99.90;;;;;;5011517;28;20294;-76
2023/01/06 08:12:29;;;;;;;9.40;8.07;;;8.10;99.90;;;;;;5010805;28;20394;-76
2023/01/06 08:14:54;;;;;;;8.57;7.97;;;8.10;99.90;;;;;;5029504;28;20182;-75
2023/01/06 08:17:20;;;;;;;15.27;14.27;;;8.20;99.90;;;;;;5028366;28;20225;-75
2023/01/06 08:19:46;;;;;;;15.57;14.17;;;8.20;99.90;;;;;;5030030;28;20198;-76
2023/01/06 08:22:11;;;;;;;11.10;9.97;;;8.30;99.90;;;;;;5028250;28;20579;-75
2023/01/06 08:24:37;;;;;;;12.67;11.57;;;8.30;99.90;;;;;;5029951;28;20183;-76
2023/01/06 08:27:03;;;;;;;12.87;10.13;;;8.20;99.90;;;;;;5028873;28;20222;-75
2023/01/06 08:29:29;;;;;;;12.80;11.70;;;8.30;99.90;;;;;;5029170;28;20204;-76
2023/01/06 08:31:54;;;;;;;10.83;9.87;;;8.20;99.90;;;;;;5030510;28;20183;-77
2023/01/06 08:34:20;;;;;;;20.90;18.97;;;8.20;99.90;;;;;;5032845;28;20210;-76
2023/01/06 08:36:46;;;;;;;19.87;18.33;;;8.20;99.90;;;;;;5029735;28;20182;-75
2023/01/06 08:39:13;;;;;;;27.17;25.27;;;8.10;99.90;;;;;;5030984;28;20648;-76
2023/01/06 08:41:39;;;;;;;19.87;18.53;;;8.10;99.90;;;;;;5029640;28;20186;-76
2023/01/06 08:44:06;;;;;;;23.93;21.93;;;8.10;99.90;;;;;;5028842;28;20228;-76
2023/01/06 08:46:32;;;;;;;21.63;19.83;;;8.20;99.90;;;;;;5033122;28;20183;-76
2023/01/06 08:48:58;;;;;;;15.00;13.40;;;8.20;99.90;;;;;;5031579;28;20203;-76
2023/01/06 08:51:25;;;;;;;14.57;13.27;;;8.10;99.90;;;;;;5032935;28;20226;-76
2023/01/06 08:53:52;;;;;;;13.30;12.00;;;8.20;99.90;;;;;;5033723;28;20621;-76
2023/01/06 08:56:26;;;;;;;14.10;12.80;;;8.20;99.90;;;;;;5030529;28;20186;-76
2023/01/06 08:58:58;;;;;;;12.33;11.27;;;8.30;99.90;;;;;;5030772;28;20184;-75
2023/01/06 09:01:27;;;;;;;8.37;7.77;;;8.30;99.90;;;;;;5033692;28;20183;-75
2023/01/06 09:03:53;;;;;;;10.70;9.70;;;8.40;99.90;;;;;;5033485;28;20195;-75
2023/01/06 09:06:19;;;;;;;9.73;8.93;;;8.50;99.90;;;;;;5031732;28;20700;-74
2023/01/06 09:08:47;;;;;;;6.77;6.27;;;8.60;99.90;;;;;;5031256;28;20182;-75
2023/01/06 09:11:15;;;;;;;8.97;6.50;;;8.70;99.90;;;;;;5031867;28;20597;-76
2023/01/06 09:13:42;;;;;;;6.97;6.63;;;8.80;99.90;;;;;;5031294;28;20203;-76
2023/01/06 09:16:09;;;;;;;11.27;10.57;;;8.90;99.90;;;;;;5032410;28;20676;-76
2023/01/06 09:18:35;;;;;;;11.00;10.10;;;9.00;99.90;;;;;;5031680;28;20254;-76
2023/01/06 09:21:02;;;;;;;10.40;9.37;;;9.00;99.90;;;;;;5031328;28;20743;-76
2023/01/06 09:23:28;;;;;;;8.50;7.50;;;9.20;99.90;;;;;;5033988;28;20199;-76
2023/01/06 09:25:55;;;;;;;13.13;12.43;;;9.20;99.90;;;;;;5034309;28;20191;-77
2023/01/06 09:28:21;;;;;;;8.53;8.03;;;9.30;99.90;;;;;;5022151;28;20679;-71
2023/01/06 09:30:47;;;;;;;6.70;6.30;;;9.30;99.90;;;;;;5027473;28;20211;-72
2023/01/06 09:33:14;;;;;;;6.93;6.53;;;9.30;99.90;;;;;;5032791;28;20285;-72
2023/01/06 09:35:41;;;;;;;7.03;6.53;;;9.30;99.90;;;;;;5032352;28;20274;-73
2023/01/06 09:38:07;;;;;;;5.70;5.30;;;9.30;99.90;;;;;;5032756;28;20171;-72
2023/01/06 09:40:51;;;;;;;9.20;8.50;;;9.30;99.90;;;;;;5035029;28;20194;-72
2023/01/06 09:43:38;;;;;;;9.20;8.60;;;9.40;99.90;;;;;;5031580;28;20226;-72
2023/01/06 09:46:06;;;;;;;10.13;8.97;;;9.40;99.90;;;;;;5032168;28;20586;-73
2023/01/06 09:48:44;;;;;;;8.73;8.13;;;9.50;99.90;;;;;;5032342;28;20179;-72
2023/01/06 09:51:17;;;;;;;7.67;7.20;;;9.50;99.90;;;;;;5032981;28;20210;-72
2023/01/06 09:54:15;;;;;;;8.50;7.90;;;9.50;99.90;;;;;;5032117;28;20280;-72
2023/01/06 09:56:45;;;;;;;11.93;11.33;;;9.50;99.90;;;;;;5029619;28;20191;-71
2023/01/06 09:59:17;;;;;;;19.20;18.10;;;9.50;99.90;;;;;;5032808;28;20179;-71
2023/01/06 10:01:47;;;;;;;19.87;18.87;;;9.60;99.90;;;;;;5032567;28;20179;-71
2023/01/06 10:04:29;;;;;;;22.50;21.10;;;9.60;99.90;;;;;;5030962;28;20594;-72
2023/01/06 10:07:28;;;;;;;20.73;19.63;;;9.70;99.90;;;;;;5031405;28;20194;-72
2023/01/06 10:10:35;;;;;;;29.23;27.57;;;9.90;99.90;;;;;;5030514;28;20667;-71
2023/01/06 10:13:19;;;;;;;15.47;14.40;;;10.10;99.90;;;;;;5012652;28;20211;-71
2023/01/06 10:15:55;;;;;;;22.80;21.70;;;10.20;99.90;;;;;;5022280;28;20183;-71
2023/01/06 10:18:31;;;;;;;12.30;11.57;;;10.30;99.90;;;;;;5029657;28;20262;-73
2023/01/06 10:21:28;;;;;;;12.80;12.00;;;10.40;99.90;;;;;;5030426;28;20277;-73
2023/01/06 10:24:02;;;;;;;16.50;15.53;;;10.30;99.90;;;;;;5041067;28;20619;-73
2023/01/06 10:26:41;;;;;;;14.47;13.67;;;10.40;99.90;;;;;;5030909;28;20183;-73
2023/01/06 10:29:17;;;;;;;11.83;11.23;;;10.50;99.90;;;;;;5032190;28;20217;-72
2023/01/06 10:31:45;;;;;;;12.63;12.00;;;10.60;99.90;;;;;;5029830;28;20183;-73
2023/01/06 10:34:24;;;;;;;26.80;25.43;;;10.80;99.90;;;;;;5011199;28;20218;-73
2023/01/06 10:37:02;;;;;;;17.30;16.43;;;11.00;99.90;;;;;;5028404;28;20599;-73
2023/01/06 10:39:30;;;;;;;30.63;29.13;;;11.20;99.90;;;;;;5031744;28;20275;-73
2023/01/06 10:44:49;;;;;;;15.27;14.47;;;11.80;99.90;;;;;;5034656;28;20218;-73
2023/01/06 10:47:30;;;;;;;5.67;5.27;;;12.20;99.90;;;;;;5031338;28;20644;-73
2023/01/06 10:49:57;;;;;;;20.63;19.60;;;12.60;99.90;;;;;;5030615;28;20288;-74
2023/01/06 10:52:24;;;;;;;17.63;16.83;;;13.00;99.90;;;;;;5030632;28;20226;-74
2023/01/06 10:54:58;;;;;;;14.30;13.20;;;13.20;99.90;;;;;;5031791;28;20353;-75
2023/01/06 10:57:28;;;;;;;11.43;10.80;;;13.20;99.90;;;;;;5030069;28;20257;-73
2023/01/06 11:00:11;;;;;;;9.00;8.60;;;13.00;99.90;;;;;;5031663;28;20324;-74
2023/01/06 11:02:43;;;;;;;7.90;7.50;;;12.90;99.90;;;;;;5030118;28;20214;-74
2023/01/06 11:05:21;;;;;;;23.40;22.17;;;12.90;99.90;;;;;;5024438;28;20416;-73
2023/01/06 11:08:03;;;;;;;51.00;48.53;;;12.90;99.90;;;;;;5024629;28;20186;-74
2023/01/06 11:10:44;;;;;;;38.33;36.13;;;12.80;99.90;;;;;;5030097;28;20223;-74
2023/01/06 11:13:33;;;;;;;54.00;51.47;;;12.50;99.90;;;;;;5014918;28;20702;-73
2023/01/06 11:16:02;;;;;;;79.97;75.90;;;12.30;99.90;;;;;;5022017;28;20202;-72
2023/01/06 11:18:30;;;;;;;82.40;78.40;;;12.30;99.90;;;;;;5029301;28;20175;-73
2023/01/06 11:21:16;;;;;;;77.40;73.60;;;12.40;99.90;;;;;;5029621;28;20194;-73
2023/01/06 11:23:44;;;;;;;56.93;54.10;;;12.60;99.90;;;;;;5030769;28;20205;-73
2023/01/06 11:26:16;;;;;;;45.23;42.53;;;12.70;99.90;;;;;;5029643;28;20193;-73
2023/01/06 11:28:44;;;;;;;32.17;30.00;;;12.70;99.90;;;;;;5029686;28;20920;-72
2023/01/06 11:31:13;;;;;;;15.57;14.77;;;12.60;99.90;;;;;;5030412;28;20211;-73
2023/01/06 11:34:02;;;;;;;10.30;9.80;;;12.70;99.90;;;;;;5029938;28;20206;-71
2023/01/06 11:36:31;;;;;;;7.50;7.10;;;12.70;99.90;;;;;;5030789;28;20309;-71
2023/01/06 11:39:21;;;;;;;7.77;7.37;;;12.50;99.90;;;;;;5029786;28;20186;-71
2023/01/06 11:41:50;;;;;;;6.53;6.03;;;12.40;99.90;;;;;;5029817;28;20194;-71
2023/01/06 11:44:30;;;;;;;5.43;5.23;;;12.20;99.90;;;;;;5030569;28;20206;-70
2023/01/06 11:47:05;;;;;;;5.77;5.37;;;12.10;99.90;;;;;;5028163;28;20205;-72
2023/01/06 11:49:31;;;;;;;6.57;6.07;;;12.00;99.90;;;;;;5029070;28;20199;-71
2023/01/06 11:52:26;;;;;;;6.97;6.53;;;11.90;99.90;;;;;;5030882;28;20202;-72
2023/01/06 11:55:06;;;;;;;37.33;35.53;;;11.80;99.90;;;;;;5031399;28;20595;-71
2023/01/06 11:57:54;;;;;;;115.17;109.63;;;11.70;99.90;;;;;;5030122;28;20185;-71
2023/01/06 12:00:41;;;;;;;110.03;104.70;;;11.60;99.90;;;;;;5030376;28;20205;-72
2023/01/06 12:03:30;;;;;;;18.13;17.27;;;11.50;99.90;;;;;;5009432;28;20578;-72
2023/01/06 12:06:23;;;;;;;6.43;6.00;;;11.40;99.90;;;;;;5025308;28;20580;-73
2023/01/06 12:09:01;;;;;;;10.67;10.07;;;11.40;99.90;;;;;;5012739;28;20205;-74
2023/01/06 12:11:58;;;;;;;12.03;11.20;;;11.40;99.90;;;;;;5016258;28;20214;-76
2023/01/06 12:14:34;;;;;;;12.10;11.40;;;11.40;99.90;;;;;;5010040;28;20203;-76
2023/01/06 12:17:33;;;;;;;12.10;11.43;;;11.50;99.90;;;;;;5009371;28;20192;-75
2023/01/06 12:20:05;;;;;;;10.93;10.23;;;11.50;99.90;;;;;;5020215;28;20289;-73
2023/01/06 12:22:38;;;;;;;11.73;11.03;;;11.50;99.90;;;;;;5028689;28;20207;-76
2023/01/06 12:25:17;;;;;;;10.33;9.63;;;11.60;99.90;;;;;;5028946;28;20241;-74
2023/01/06 12:27:57;;;;;;;10.50;9.83;;;11.60;99.90;;;;;;5029160;28;20191;-75
2023/01/06 12:30:44;;;;;;;10.27;9.57;;;11.70;99.90;;;;;;5028897;28;20206;-76
2023/01/06 12:33:24;;;;;;;20.40;19.23;;;11.80;99.90;;;;;;5028663;28;20210;-76
2023/01/06 12:35:54;;;;;;;74.20;70.53;;;11.80;99.90;;;;;;5016256;28;20669;-77
2023/01/06 12:38:41;;;;;;;91.87;87.40;;;11.80;99.90;;;;;;5009160;28;20184;-76
2023/01/06 12:41:32;;;;;;;98.60;93.77;;;11.80;99.90;;;;;;5030319;28;20190;-76
2023/01/06 12:44:21;;;;;;;98.93;94.13;;;11.80;99.90;;;;;;5018491;28;20696;-76
2023/01/06 12:47:15;;;;;;;100.37;95.43;;;11.80;99.90;;;;;;5030244;28;20187;-77
2023/01/06 12:49:59;;;;;;;107.40;101.80;;;11.80;99.90;;;;;;5028624;28;20205;-75
2023/01/06 12:53:02;;;;;;;112.80;107.10;;;11.80;99.90;;;;;;5028851;28;20260;-76
2023/01/06 12:56:03;;;;;;;79.93;75.83;;;11.70;99.90;;;;;;4984741;28;20194;-77
2023/01/06 12:58:38;;;;;;;13.63;12.83;;;11.60;99.90;;;;;;5013504;28;20663;-78
2023/01/06 13:01:30;;;;;;;7.53;7.03;;;11.60;99.90;;;;;;5033793;28;20345;-76
2023/01/06 13:04:24;;;;;;;10.40;9.90;;;11.60;99.90;;;;;;5028268;28;20218;-76
2023/01/06 13:06:56;;;;;;;16.40;15.60;;;11.60;99.90;;;;;;5027592;28;20179;-77
2023/01/06 13:09:30;;;;;;;22.13;21.03;;;11.50;99.90;;;;;;5035252;28;20718;-78